Time;durP1;ratioP1;P1;durP2;ratioP2;P2;SDS_P1;SDS_P2;PMS_P1;PMS_P2;Temp;Humidity;BMP_temperature;BMP_pressure;BME280_temperature;BME280_humidity;BME280_pressure;Samples;Min_cycle;Max_cycle;Signal;HPM_P1;HPM_P2
2022/05/01 00:00:27;;;;;;;5.53;3.70;;;;;;;5.79;75.57;96087.45;1834729;78;21071;-65
2022/05/01 00:02:55;;;;;;;5.70;4.00;;;;;;;5.76;75.35;96088.73;1835169;78;21552;-65
2022/05/01 00:05:22;;;;;;;6.53;3.63;;;;;;;5.60;75.29;96083.37;1835391;78;20992;-66
2022/05/01 00:07:49;;;;;;;7.47;3.17;;;;;;;5.61;75.60;96089.48;1840689;78;21003;-65
2022/05/01 00:10:16;;;;;;;4.87;3.80;;;;;;;5.60;75.86;96085.99;1840748;78;20987;-66
2022/05/01 00:12:43;;;;;;;5.87;3.83;;;;;;;5.57;75.74;96085.98;1840792;78;21430;-66
2022/05/01 00:15:10;;;;;;;4.10;3.27;;;;;;;5.58;75.12;96086.41;1840552;78;21034;-65
2022/05/01 00:17:37;;;;;;;4.90;3.67;;;;;;;5.49;76.25;96092.86;1840456;78;21488;-65
2022/05/01 00:20:06;;;;;;;5.27;3.30;;;;;;;5.36;75.90;96080.09;1840391;78;21015;-66
2022/05/01 00:22:32;;;;;;;7.37;3.73;;;;;;;5.31;76.13;96087.03;1840678;78;21011;-66
2022/05/01 00:24:59;;;;;;;5.43;3.27;;;;;;;5.32;76.40;96084.88;1840641;78;20971;-66
2022/05/01 00:27:25;;;;;;;5.40;3.33;;;;;;;5.30;78.03;96089.65;1840411;78;21015;-65
2022/05/01 00:29:52;;;;;;;5.83;3.17;;;;;;;5.30;77.35;96092.27;1840378;78;21504;-66
2022/05/01 00:32:18;;;;;;;5.53;3.23;;;;;;;5.29;78.66;96084.85;1840629;78;21003;-65
2022/05/01 00:37:31;;;;;;;4.73;3.30;;;;;;;5.21;78.13;96087.36;1769808;81;21056;-66
2022/05/01 00:39:58;;;;;;;4.17;2.73;;;;;;;5.28;77.78;96083.08;1769595;81;20978;-66
2022/05/01 00:42:25;;;;;;;3.20;2.87;;;;;;;5.37;77.92;96081.00;1794555;78;20968;-65
2022/05/01 00:44:51;;;;;;;3.20;2.73;;;;;;;5.36;77.68;96083.15;1840670;78;21038;-65
2022/05/01 00:47:18;;;;;;;4.83;2.70;;;;;;;5.37;77.44;96081.88;1840544;78;21538;-66
2022/05/01 00:49:45;;;;;;;5.03;3.23;;;;;;;5.35;77.10;96077.05;1840746;78;21504;-65
2022/05/01 00:52:12;;;;;;;6.23;3.23;;;;;;;5.35;77.15;96078.36;1840753;78;21015;-65
2022/05/01 00:54:43;;;;;;;4.10;2.83;;;;;;;5.30;76.94;96077.88;1840213;78;21623;-65
2022/05/01 00:57:10;;;;;;;4.17;3.50;;;;;;;5.33;77.47;96077.89;1841053;78;21015;-65
2022/05/01 00:59:38;;;;;;;4.03;2.87;;;;;;;5.33;78.68;96080.07;1839988;78;21541;-65
2022/05/01 01:02:06;;;;;;;8.73;4.17;;;;;;;5.25;77.31;96081.75;1840692;78;21043;-65
2022/05/01 01:04:34;;;;;;;7.43;4.20;;;;;;;5.08;78.03;96080.26;1840792;78;21015;-65
2022/05/01 01:07:00;;;;;;;3.37;2.83;;;;;;;5.11;77.89;96080.28;1833991;78;21055;-66
2022/05/01 01:09:27;;;;;;;4.57;2.80;;;;;;;5.11;77.74;96080.72;1831917;78;21003;-66
2022/05/01 01:14:42;;;;;;;4.17;2.80;;;;;;;5.20;78.03;96080.39;1831378;78;20976;-65
2022/05/01 01:17:08;;;;;;;5.30;3.50;;;;;;;5.17;78.20;96072.52;1831735;78;21481;-65
2022/05/01 01:19:34;;;;;;;4.73;3.40;;;;;;;5.21;78.23;96078.64;1831835;78;21031;-65
2022/05/01 01:22:03;;;;;;;5.23;3.90;;;;;;;5.27;78.03;96081.77;1831811;78;21063;-66
2022/05/01 01:24:40;;;;;;;4.93;3.70;;;;;;;5.31;77.65;96076.56;1831835;78;20964;-66
2022/05/01 01:27:10;;;;;;;4.83;3.40;;;;;;;5.24;77.63;96074.77;1831881;78;20975;-66
2022/05/01 01:32:25;;;;;;;4.70;3.50;;;;;;;5.09;78.79;96082.44;1832010;78;20991;-66
2022/05/01 01:34:53;;;;;;;5.70;2.70;;;;;;;5.03;77.93;96083.26;1831605;78;21529;-65
2022/05/01 01:37:23;;;;;;;4.33;3.20;;;;;;;4.93;79.73;96080.97;1831719;78;21461;-66
2022/05/01 01:39:52;;;;;;;4.53;3.10;;;;;;;4.88;79.90;96080.48;1831813;78;20989;-66
2022/05/01 01:42:19;;;;;;;4.93;3.23;;;;;;;4.85;78.90;96083.06;1831568;78;21446;-66
2022/05/01 01:44:46;;;;;;;3.17;2.50;;;;;;;4.81;79.18;96082.13;1831768;78;21000;-65
2022/05/01 01:47:14;;;;;;;3.40;2.63;;;;;;;4.80;78.72;96083.01;1831970;78;21031;-66
2022/05/01 01:49:41;;;;;;;3.47;2.80;;;;;;;4.75;78.84;96082.08;1831462;78;20964;-65
2022/05/01 01:52:07;;;;;;;4.87;2.50;;;;;;;4.78;79.09;96081.67;1831969;78;20983;-66
2022/05/01 01:54:35;;;;;;;2.90;2.60;;;;;;;4.76;78.77;96082.11;1831716;78;21020;-65
2022/05/01 01:57:03;;;;;;;3.30;2.40;;;;;;;4.80;78.93;96084.75;1831744;78;21004;-65
2022/05/01 01:59:29;;;;;;;3.87;2.53;;;;;;;4.77;78.49;96087.77;1831754;78;21039;-65
2022/05/01 02:01:56;;;;;;;3.57;2.50;;;;;;;4.76;78.68;96078.19;1831929;78;20952;-66
2022/05/01 02:04:23;;;;;;;4.90;2.40;;;;;;;4.79;80.37;96085.19;1831747;78;21047;-65
2022/05/01 02:06:49;;;;;;;3.30;2.40;;;;;;;4.78;79.27;96089.95;1831770;78;21008;-65
2022/05/01 02:09:17;;;;;;;4.60;2.70;;;;;;;4.84;79.10;96089.13;1831701;78;21083;-65
2022/05/01 02:11:44;;;;;;;4.00;2.40;;;;;;;4.90;79.17;96080.94;1831249;78;21054;-66
2022/05/01 02:14:11;;;;;;;3.47;2.40;;;;;;;5.01;79.29;96081.05;1832060;78;21063;-66
2022/05/01 02:16:39;;;;;;;2.80;1.90;;;;;;;5.05;78.93;96082.84;1831594;78;21043;-66
2022/05/01 02:19:06;;;;;;;2.33;2.10;;;;;;;5.11;78.65;96080.72;1831778;78;21024;-65
2022/05/01 02:21:40;;;;;;;3.60;2.90;;;;;;;5.05;78.47;96077.62;1831790;78;21023;-65
2022/05/01 02:24:12;;;;;;;5.83;2.40;;;;;;;5.13;78.78;96081.18;1831610;78;20952;-66
2022/05/01 02:26:40;;;;;;;3.85;2.98;;;;;;;5.13;79.71;96073.34;1832023;78;20968;-65
2022/05/01 02:29:09;;;;;;;5.50;3.03;;;;;;;5.18;79.84;96072.95;1831690;78;21083;-66
2022/05/01 02:31:41;;;;;;;3.20;2.30;;;;;;;5.25;78.94;96069.11;1831368;78;21027;-65
2022/05/01 02:34:09;;;;;;;4.60;2.40;;;;;;;5.20;78.74;96075.59;1831789;78;20999;-66
2022/05/01 02:36:36;;;;;;;3.50;2.30;;;;;;;5.32;79.19;96072.23;1831723;78;21550;-66
2022/05/01 02:39:04;;;;;;;3.50;2.43;;;;;;;5.41;78.96;96075.78;1831776;78;20964;-66
2022/05/01 02:41:31;;;;;;;2.10;1.90;;;;;;;5.50;78.91;96075.44;1831692;78;21516;-66
2022/05/01 02:43:58;;;;;;;3.13;2.73;;;;;;;5.52;78.41;96076.30;1831827;78;21023;-66
2022/05/01 02:46:27;;;;;;;2.57;2.10;;;;;;;5.33;78.78;96069.61;1831828;78;20952;-65
2022/05/01 02:48:54;;;;;;;3.03;2.20;;;;;;;5.35;78.73;96069.20;1831803;78;20952;-66
2022/05/01 02:51:21;;;;;;;2.30;1.93;;;;;;;5.39;78.63;96074.02;1831778;78;21528;-66
2022/05/01 02:53:48;;;;;;;1.93;1.47;;;;;;;5.36;78.22;96068.76;1831696;78;20999;-66
2022/05/01 02:56:14;;;;;;;4.07;2.20;;;;;;;5.38;78.27;96067.03;1831659;78;20968;-65
2022/05/01 02:58:41;;;;;;;2.33;2.13;;;;;;;5.38;78.96;96070.52;1831789;78;21043;-66
2022/05/01 03:01:08;;;;;;;2.67;2.07;;;;;;;5.38;79.97;96067.91;1831526;78;20995;-66
2022/05/01 03:03:35;;;;;;;3.13;2.27;;;;;;;5.40;79.39;96068.80;1831700;78;21437;-65
2022/05/01 03:06:02;;;;;;;3.93;2.07;;;;;;;5.39;80.71;96060.93;1831439;78;21045;-66
2022/05/01 03:08:28;;;;;;;3.37;2.47;;;;;;;5.38;81.24;96065.73;1835292;78;20960;-66
2022/05/01 03:10:55;;;;;;;4.33;3.30;;;;;;;5.41;80.52;96064.44;1835429;78;21042;-66
2022/05/01 03:13:22;;;;;;;5.30;3.87;;;;;;;5.43;80.82;96070.58;1801981;78;20999;-66
2022/05/01 03:15:48;;;;;;;3.60;2.70;;;;;;;5.42;80.55;96072.32;1835230;78;20956;-65
2022/05/01 03:23:47;;;;;;;2.10;1.90;;;;;;;5.46;80.35;96068.41;1835382;78;20988;-66
2022/05/01 03:26:13;;;;;;;2.13;1.93;;;;;;;5.48;81.52;96069.31;1835133;78;20996;-66
2022/05/01 03:28:40;;;;;;;3.90;3.30;;;;;;;5.50;81.74;96070.20;1835011;78;21007;-66
2022/05/01 03:31:09;;;;;;;3.50;2.90;;;;;;;5.54;81.25;96068.91;1835292;78;21031;-66
2022/05/01 03:33:36;;;;;;;6.30;3.40;;;;;;;5.52;81.69;96073.69;1835018;78;21031;-65
2022/05/01 03:36:06;;;;;;;3.07;2.20;;;;;;;5.53;81.41;96079.39;1834896;78;21012;-66
2022/05/01 03:38:37;;;;;;;3.63;2.40;;;;;;;5.62;80.84;96078.17;1835102;78;21492;-66
2022/05/01 03:41:06;;;;;;;2.83;2.17;;;;;;;5.73;80.59;96082.17;1834178;78;20987;-66
2022/05/01 03:43:35;;;;;;;2.60;2.00;;;;;;;5.83;80.70;96085.30;1835258;78;21015;-66
2022/05/01 03:46:06;;;;;;;2.60;2.00;;;;;;;5.93;80.52;96087.12;1835141;78;20995;-66
2022/05/01 03:48:33;;;;;;;2.30;2.10;;;;;;;5.97;80.21;96088.95;1835139;78;20995;-66
2022/05/01 03:51:00;;;;;;;3.87;3.20;;;;;;;6.04;80.58;96095.09;1835060;78;21015;-66
2022/05/01 03:53:27;;;;;;;6.37;3.67;;;;;;;6.12;80.58;96097.31;1835282;78;20987;-66
2022/05/01 03:55:54;;;;;;;6.10;4.10;;;;;;;6.18;80.31;96100.00;1835106;78;21003;-65
2022/05/01 03:58:20;;;;;;;6.57;4.33;;;;;;;6.18;79.84;96097.81;1835193;78;20960;-65
2022/05/01 04:00:48;;;;;;;23.00;9.57;;;;;;;6.18;80.99;96099.13;1834939;78;21043;-65
2022/05/01 04:03:15;;;;;;;93.60;27.20;;;;;;;6.17;80.15;96098.66;1834752;78;21011;-66
2022/05/01 04:05:43;;;;;;;116.33;33.40;;;;;;;6.17;79.81;96099.97;1835207;78;21007;-66
2022/05/01 04:08:11;;;;;;;122.87;35.80;;;;;;;6.21;80.80;96101.76;1831993;78;21091;-66
2022/05/01 04:10:41;;;;;;;62.77;22.00;;;;;;;6.18;80.88;96097.38;1831529;78;20972;-65
2022/05/01 04:13:10;;;;;;;55.97;19.80;;;;;;;6.25;80.54;96093.94;1831176;78;21007;-66
2022/05/01 04:15:37;;;;;;;10.33;4.70;;;;;;;6.33;80.46;96093.98;1831404;78;21547;-66
2022/05/01 04:18:08;;;;;;;4.10;2.23;;;;;;;6.40;80.07;96096.18;1831539;78;21043;-66
2022/05/01 04:20:40;;;;;;;20.10;7.30;;;;;;;6.43;80.21;96095.78;1831612;78;21039;-66
2022/05/01 04:23:06;;;;;;;20.07;7.07;;;;;;;6.46;80.67;96093.61;1830226;78;20995;-66
2022/05/01 04:25:35;;;;;;;47.63;17.90;;;;;;;6.55;80.36;96092.77;1831777;78;21046;-66
2022/05/01 04:28:05;;;;;;;35.27;17.17;;;;;;;6.64;80.78;96096.31;1831738;78;21063;-66
2022/05/01 04:30:32;;;;;;;21.07;12.10;;;;;;;6.77;80.16;96095.93;1831569;78;20979;-66
2022/05/01 04:33:05;;;;;;;31.07;13.43;;;;;;;6.87;80.01;96087.67;1831613;78;21039;-66
2022/05/01 04:35:45;;;;;;;38.60;19.95;;;;;;;6.99;79.81;96090.34;1831863;78;21079;-65
2022/05/01 04:38:21;;;;;;;30.93;16.97;;;;;;;7.12;79.60;96095.19;1831474;78;21051;-66
2022/05/01 04:40:54;;;;;;;22.20;14.47;;;;;;;7.17;78.49;96088.20;1831653;78;21022;-65
2022/05/01 04:43:23;;;;;;;16.10;9.90;;;;;;;7.12;78.12;96089.49;1831754;78;20995;-66
2022/05/01 04:45:53;;;;;;;15.03;7.67;;;;;;;7.15;78.55;96094.74;1831275;78;20959;-66
2022/05/01 04:48:21;;;;;;;12.00;7.10;;;;;;;7.24;78.43;96096.98;1831559;78;21043;-65
2022/05/01 04:50:49;;;;;;;9.77;6.93;;;;;;;7.27;77.48;96090.41;1831715;78;20991;-66
2022/05/01 04:53:19;;;;;;;11.40;7.30;;;;;;;7.30;77.41;96091.72;1831492;78;21477;-66
2022/05/01 04:55:48;;;;;;;8.17;5.20;;;;;;;7.40;78.04;96093.94;1831598;78;21525;-66
2022/05/01 04:58:16;;;;;;;7.33;5.10;;;;;;;7.56;78.10;96091.79;1831565;78;21047;-66
2022/05/01 05:00:45;;;;;;;8.67;4.37;;;;;;;7.73;77.59;96082.14;1831684;78;21493;-66
2022/05/01 05:03:12;;;;;;;5.17;3.70;;;;;;;7.89;77.34;96093.55;1831453;78;21549;-66
2022/05/01 05:05:39;;;;;;;6.67;4.10;;;;;;;8.02;77.09;96085.22;1831599;78;20952;-65
2022/05/01 05:10:51;;;;;;;5.23;4.10;;;;;;;8.24;76.97;96086.08;1835291;78;21472;-65
2022/05/01 05:13:27;;;;;;;6.80;4.63;;;;;;;8.33;76.41;96088.67;1835143;78;21007;-65
2022/05/01 05:15:58;;;;;;;5.87;4.57;;;;;;;8.45;76.40;96083.86;1835263;78;21035;-65
2022/05/01 05:18:23;;;;;;;6.57;4.23;;;;;;;8.64;75.99;96081.63;1834737;78;21011;-65
2022/05/01 05:20:49;;;;;;;6.50;4.10;;;;;;;8.78;75.14;96085.51;1835042;78;21035;-65
2022/05/01 05:23:17;;;;;;;5.00;3.90;;;;;;;8.92;74.54;96080.20;1835266;78;20971;-65
2022/05/01 05:25:44;;;;;;;5.30;3.63;;;;;;;8.93;73.34;96081.08;1835054;78;20976;-65
2022/05/01 05:28:10;;;;;;;5.53;3.27;;;;;;;8.97;73.23;96080.16;1835278;78;20948;-65
2022/05/01 05:30:37;;;;;;;16.43;14.53;;;;;;;9.01;71.21;96084.09;1835177;78;20968;-66
2022/05/01 05:33:04;;;;;;;6.30;5.70;;;;;;;9.14;72.20;96080.95;1830230;78;20992;-66
2022/05/01 05:35:31;;;;;;;6.37;4.60;;;;;;;9.21;71.67;96077.41;1835091;78;21015;-65
2022/05/01 05:37:57;;;;;;;5.43;3.90;;;;;;;9.27;72.06;96083.98;1835105;78;21453;-66
2022/05/01 05:40:24;;;;;;;5.20;3.30;;;;;;;9.37;71.75;96083.45;1835022;78;20964;-66
2022/05/01 05:42:50;;;;;;;6.93;3.37;;;;;;;9.52;71.93;96084.70;1835403;78;20999;-66
2022/05/01 05:45:17;;;;;;;3.80;3.00;;;;;;;9.63;71.89;96091.66;1835184;78;21536;-66
2022/05/01 05:47:43;;;;;;;4.63;3.03;;;;;;;9.72;71.48;96086.30;1834907;78;21050;-66
2022/05/01 05:50:10;;;;;;;3.30;2.73;;;;;;;9.78;71.37;96084.95;1835190;78;20979;-66
2022/05/01 05:52:37;;;;;;;3.50;2.73;;;;;;;9.93;71.51;96082.64;1835278;78;20981;-65
2022/05/01 05:55:05;;;;;;;3.83;2.57;;;;;;;10.08;70.29;96082.52;1834962;78;21509;-65
2022/05/01 05:57:31;;;;;;;4.17;2.83;;;;;;;10.22;70.11;96081.05;1835335;78;20983;-65
2022/05/01 05:59:58;;;;;;;3.23;2.80;;;;;;;10.36;69.77;96080.97;1745940;82;21478;-65
2022/05/01 06:02:25;;;;;;;2.57;2.30;;;;;;;10.52;69.27;96082.55;1767506;81;21065;-65
2022/05/01 06:04:51;;;;;;;3.13;2.50;;;;;;;10.67;68.04;96080.19;1768234;81;21021;-65
2022/05/01 06:07:18;;;;;;;3.47;2.37;;;;;;;10.78;67.52;96082.24;1764510;81;21039;-65
2022/05/01 06:09:44;;;;;;;4.77;2.50;;;;;;;10.80;66.46;96084.88;1752691;82;20968;-66
2022/05/01 06:12:11;;;;;;;2.73;2.30;;;;;;;10.88;66.79;96083.02;1752908;81;20971;-65
2022/05/01 06:14:39;;;;;;;3.00;2.43;;;;;;;10.99;65.57;96085.55;1779956;81;21054;-66
2022/05/01 06:17:06;;;;;;;2.57;2.10;;;;;;;11.12;65.88;96081.84;1779681;81;21484;-66
2022/05/01 06:19:32;;;;;;;4.30;2.33;;;;;;;11.26;65.81;96079.91;1780108;81;21027;-66
2022/05/01 06:21:59;;;;;;;11.63;6.97;;;;;;;11.34;63.57;96079.80;1779979;81;21015;-66
2022/05/01 06:24:26;;;;;;;4.17;3.37;;;;;;;11.42;62.36;96079.24;1779758;81;21050;-66
2022/05/01 06:26:52;;;;;;;4.47;2.63;;;;;;;11.50;62.07;96081.77;1780020;80;21520;-65
2022/05/01 06:29:18;;;;;;;2.83;2.43;;;;;;;11.65;63.51;96082.87;1780170;81;21054;-66
2022/05/01 06:31:45;;;;;;;3.45;2.12;;;;;;;11.78;62.08;96079.58;1779766;80;21505;-66
2022/05/01 06:34:12;;;;;;;2.50;2.30;;;;;;;11.94;62.12;96081.56;1780027;81;21038;-65
2022/05/01 06:36:39;;;;;;;2.65;2.10;;;;;;;12.07;62.06;96083.55;1779996;81;21039;-65
2022/05/01 06:39:06;;;;;;;6.37;2.52;;;;;;;12.19;61.86;96076.73;1780106;80;20964;-65
2022/05/01 06:41:33;;;;;;;2.72;2.17;;;;;;;12.34;62.01;96081.76;1779987;81;21006;-66
2022/05/01 06:43:59;;;;;;;2.55;1.90;;;;;;;12.47;61.59;96085.09;1779820;81;21046;-66
2022/05/01 06:46:26;;;;;;;3.52;2.30;;;;;;;12.60;61.40;96084.41;1780247;81;20963;-65
2022/05/01 06:48:53;;;;;;;5.37;2.67;;;;;;;12.71;60.65;96086.39;1780035;81;21106;-66
2022/05/01 06:51:20;;;;;;;5.12;2.30;;;;;;;12.83;60.78;96087.08;1779695;81;21019;-66
2022/05/01 06:53:46;;;;;;;2.75;2.00;;;;;;;12.91;59.75;96081.16;1779884;81;21039;-65
2022/05/01 06:56:13;;;;;;;3.55;2.30;;;;;;;13.02;60.14;96081.80;1780161;81;20991;-65
2022/05/01 06:58:39;;;;;;;2.47;2.27;;;;;;;13.14;59.31;96080.23;1779560;81;21083;-66
2022/05/01 07:01:07;;;;;;;2.77;2.05;;;;;;;13.19;58.33;96069.55;1780300;80;20995;-66
2022/05/01 07:03:35;;;;;;;3.90;2.10;;;;;;;13.31;59.34;96071.97;1780272;81;20975;-65
2022/05/01 07:06:02;;;;;;;3.98;2.08;;;;;;;13.43;58.46;96069.52;1779727;81;21499;-66
2022/05/01 07:08:29;;;;;;;2.42;2.00;;;;;;;13.55;58.45;96075.84;1788592;80;21093;-66
2022/05/01 07:10:56;;;;;;;2.70;2.35;;;;;;;13.74;58.83;96076.77;1795650;80;21015;-66
2022/05/01 07:13:22;;;;;;;3.77;2.05;;;;;;;13.87;57.26;96070.72;1795421;80;21019;-66
2022/05/01 07:15:49;;;;;;;4.03;2.45;;;;;;;13.97;57.34;96077.55;1795513;80;21018;-66
2022/05/01 07:18:16;;;;;;;4.15;2.60;;;;;;;14.11;57.76;96075.86;1795086;80;21126;-66
2022/05/01 07:20:45;;;;;;;5.97;3.15;;;;;;;14.22;57.09;96073.83;1795370;80;21020;-66
2022/05/01 07:23:11;;;;;;;3.45;2.33;;;;;;;14.33;56.42;96067.78;1795606;80;21445;-66
2022/05/01 07:25:38;;;;;;;3.20;2.30;;;;;;;14.45;56.32;96068.80;1795421;80;21002;-66
2022/05/01 07:28:06;;;;;;;3.60;2.30;;;;;;;14.51;54.63;96075.72;1795436;80;21057;-66
2022/05/01 07:30:32;;;;;;;4.28;2.92;;;;;;;14.62;54.88;96067.06;1795176;80;21046;-66
2022/05/01 07:32:59;;;;;;;3.83;3.00;;;;;;;14.73;54.73;96068.55;1795394;80;20986;-66
2022/05/01 07:35:25;;;;;;;5.50;3.55;;;;;;;14.77;54.21;96060.47;1795497;80;21555;-65
2022/05/01 07:37:52;;;;;;;4.37;2.67;;;;;;;14.84;55.00;96068.69;1795459;80;21022;-66
2022/05/01 07:40:24;;;;;;;4.22;2.58;;;;;;;14.96;55.44;96064.79;1795357;80;21525;-66
2022/05/01 07:42:47;;;;;;;2.80;2.40;;;;;;;15.04;54.70;96061.45;1794692;80;21049;-66
2022/05/01 07:45:13;;;;;;;2.58;2.37;;;;;;;15.16;55.46;96065.55;1795387;80;21504;-66
2022/05/01 07:47:40;;;;;;;5.03;3.00;;;;;;;15.33;55.98;96056.62;1795336;80;20975;-66
2022/05/01 07:50:08;;;;;;;3.92;3.17;;;;;;;15.47;55.40;96054.89;1795501;80;21006;-66
2022/05/01 07:52:35;;;;;;;4.53;2.60;;;;;;;15.67;55.35;96060.91;1795432;80;21022;-66
2022/05/01 07:55:05;;;;;;;2.52;2.33;;;;;;;15.79;53.27;96053.04;1795024;80;21089;-66
2022/05/01 07:57:31;;;;;;;2.83;2.47;;;;;;;15.84;53.22;96053.77;1795560;80;21026;-66
2022/05/01 07:59:58;;;;;;;7.67;4.62;;;;;;;15.91;53.71;96049.12;1795398;80;21006;-66
2022/05/01 08:02:35;;;;;;;2.92;2.30;;;;;;;15.96;53.83;96057.83;1795212;80;21462;-66
2022/05/01 08:05:02;;;;;;;2.98;2.22;;;;;;;16.04;52.29;96060.24;1795451;80;21529;-66
2022/05/01 08:07:28;;;;;;;3.52;2.27;;;;;;;16.14;53.31;96055.02;1794702;80;21002;-67
2022/05/01 08:09:55;;;;;;;58.87;42.53;;;;;;;16.21;51.64;96049.91;1787074;80;21046;-66
2022/05/01 08:12:21;;;;;;;29.42;22.58;;;;;;;16.29;52.30;96054.98;1787146;80;21011;-66
2022/05/01 08:14:47;;;;;;;5.62;4.92;;;;;;;16.22;48.84;96049.84;1787087;80;21508;-66
2022/05/01 08:17:14;;;;;;;20.12;15.00;;;;;;;16.30;51.35;96049.58;1754195;80;21576;-66
2022/05/01 08:22:26;;;;;;;4.83;2.98;;;;;;;16.47;49.44;96037.50;1787015;80;20999;-66
2022/05/01 08:24:54;;;;;;;3.37;2.20;;;;;;;16.64;50.29;96039.98;1787266;80;21010;-66
2022/05/01 08:27:20;;;;;;;6.83;3.40;;;;;;;16.87;50.26;96035.19;1786819;80;21083;-66
2022/05/01 08:29:47;;;;;;;3.52;2.87;;;;;;;17.06;49.17;96037.20;1786940;80;21480;-66
2022/05/01 08:32:13;;;;;;;4.83;3.25;;;;;;;17.06;49.17;96037.20;1787049;80;21023;-68
2022/05/01 08:34:39;;;;;;;2.27;2.00;;;;;;;17.03;46.38;96034.62;1786844;80;20998;-66
2022/05/01 08:37:06;;;;;;;2.95;2.10;;;;;;;17.14;48.08;96032.91;1786916;80;21531;-66
2022/05/01 08:39:33;;;;;;;2.55;1.92;;;;;;;17.12;47.03;96016.95;1787143;80;20995;-66
2022/05/01 08:42:02;;;;;;;3.90;2.30;;;;;;;17.44;48.27;96010.88;1787340;80;20983;-66
2022/05/01 08:44:36;;;;;;;2.47;2.20;;;;;;;17.44;48.27;96010.88;1786944;80;21003;-66
2022/05/01 08:47:27;;;;;;;3.05;1.70;;;;;;;17.64;48.19;96024.30;1787162;80;21497;-66
2022/05/01 08:49:58;;;;;;;3.33;2.47;;;;;;;17.66;46.09;96017.06;1784897;80;21078;-66
2022/05/01 08:52:27;;;;;;;3.22;2.50;;;;;;;17.74;45.92;96020.33;1787063;80;21074;-67
2022/05/01 08:54:56;;;;;;;3.65;2.30;;;;;;;17.83;45.95;96009.77;1787214;80;21484;-66
2022/05/01 08:57:24;;;;;;;2.37;2.10;;;;;;;17.94;45.36;96020.89;1787033;80;21037;-66
2022/05/01 08:59:55;;;;;;;2.60;2.00;;;;;;;18.04;45.57;96020.05;1787295;80;20999;-66
2022/05/01 09:02:22;;;;;;;2.62;1.82;;;;;;;18.06;44.95;96011.48;1787147;80;21003;-66
2022/05/01 09:04:49;;;;;;;2.33;1.80;;;;;;;18.15;44.62;95996.42;1787055;80;20983;-66
2022/05/01 09:07:16;;;;;;;2.87;1.80;;;;;;;18.25;43.68;95996.91;1787018;80;21490;-66
2022/05/01 09:09:42;;;;;;;2.42;1.80;;;;;;;18.40;47.05;95995.39;1794086;80;20999;-66
2022/05/01 09:14:56;;;;;;;2.47;1.70;;;;;;;18.59;42.72;95992.30;1795544;80;21015;-66
2022/05/01 09:17:27;;;;;;;4.37;1.85;;;;;;;18.71;42.65;95988.23;1795107;80;21105;-66
2022/05/01 09:19:54;;;;;;;3.80;1.75;;;;;;;18.89;42.11;95985.23;1794376;80;20991;-66
2022/05/01 09:22:21;;;;;;;2.50;1.82;;;;;;;19.02;42.45;95980.19;1795383;80;21049;-66
2022/05/01 09:24:53;;;;;;;3.12;1.80;;;;;;;19.04;40.33;95985.00;1795247;80;21137;-66
2022/05/01 09:27:25;;;;;;;2.42;1.80;;;;;;;19.15;42.34;95981.38;1795161;80;21520;-66
2022/05/01 09:30:08;;;;;;;2.52;1.80;;;;;;;19.29;41.46;95978.05;1795496;80;21014;-66
2022/05/01 09:32:38;;;;;;;1.82;1.52;;;;;;;19.34;41.01;95977.84;1794958;80;20987;-67
2022/05/01 09:35:07;;;;;;;3.77;1.87;;;;;;;19.39;38.24;95969.98;1795262;80;21077;-66
2022/05/01 09:37:34;;;;;;;1.85;1.47;;;;;;;19.49;39.61;95970.90;1790417;80;21057;-66
2022/05/01 09:40:01;;;;;;;1.75;1.65;;;;;;;19.59;36.96;95971.72;1795537;80;21045;-66
2022/05/01 09:42:33;;;;;;;2.35;1.50;;;;;;;19.73;40.59;95972.44;1795508;80;21006;-66
2022/05/01 09:45:12;;;;;;;3.70;1.73;;;;;;;19.91;39.34;95966.64;1795104;80;21015;-66
2022/05/01 09:47:44;;;;;;;1.57;1.40;;;;;;;19.98;40.04;95964.06;1795470;80;21049;-66
2022/05/01 09:50:14;;;;;;;1.60;1.30;;;;;;;19.95;35.43;95956.63;1795631;80;21042;-66
2022/05/01 09:52:59;;;;;;;1.98;1.40;;;;;;;19.92;35.47;95950.95;1795685;80;20951;-66
2022/05/01 09:55:27;;;;;;;2.27;1.50;;;;;;;19.95;34.91;95960.65;1795531;80;21015;-66
2022/05/01 09:58:12;;;;;;;1.70;1.50;;;;;;;19.99;34.49;95953.73;1795657;80;21050;-66
2022/05/01 10:00:45;;;;;;;2.27;1.65;;;;;;;19.97;33.64;95952.08;1795389;80;21013;-66
2022/05/01 10:03:28;;;;;;;2.25;1.42;;;;;;;20.17;36.08;95951.94;1795514;80;20991;-66
2022/05/01 10:05:58;;;;;;;3.00;1.85;;;;;;;20.20;34.42;95945.55;1795580;80;21054;-66
2022/05/01 10:08:26;;;;;;;3.05;1.65;;;;;;;20.09;34.00;95938.92;1795438;80;21114;-66
2022/05/01 10:10:59;;;;;;;1.85;1.72;;;;;;;19.97;31.18;95940.88;1795531;80;21512;-66
2022/05/01 10:13:27;;;;;;;3.98;1.80;;;;;;;20.12;36.18;95942.41;1795779;80;21002;-66
2022/05/01 10:15:55;;;;;;;2.20;1.70;;;;;;;20.21;35.80;95942.80;1795385;80;21523;-66
2022/05/01 10:18:24;;;;;;;1.98;1.80;;;;;;;20.31;36.06;95948.09;1795379;80;21015;-66
2022/05/01 10:20:52;;;;;;;3.60;1.82;;;;;;;20.39;34.30;95934.77;1795470;80;21026;-66
2022/05/01 10:23:19;;;;;;;2.12;1.77;;;;;;;20.39;32.76;95934.28;1764325;80;21507;-66
2022/05/01 10:26:15;;;;;;;1.75;1.65;;;;;;;20.57;34.49;95939.67;1764614;80;20994;-66
2022/05/01 10:29:09;;;;;;;1.95;1.80;;;;;;;20.67;33.78;95935.07;1795258;80;21054;-66
2022/05/01 10:32:21;;;;;;;2.52;1.70;;;;;;;20.82;35.22;95936.07;1795116;80;21017;-66
2022/05/01 10:35:10;;;;;;;2.50;1.70;;;;;;;20.82;33.07;95934.73;1795347;80;21006;-68
2022/05/01 10:38:17;;;;;;;2.47;1.80;;;;;;;21.06;33.98;95934.34;1795514;80;21066;-66
2022/05/01 10:40:57;;;;;;;2.83;1.80;;;;;;;21.25;34.61;95923.00;1764798;80;21042;-66
2022/05/01 10:43:37;;;;;;;4.87;1.90;;;;;;;21.15;30.24;95915.92;1795290;80;21585;-66
2022/05/01 10:46:20;;;;;;;1.90;1.70;;;;;;;21.14;33.83;95922.70;1795599;80;21503;-66
2022/05/01 10:48:46;;;;;;;2.05;1.82;;;;;;;;;;1795588;80;21022;-66
2022/05/01 10:51:34;;;;;;;1.60;1.50;;;;;;;21.70;33.89;95920.05;1795428;80;21053;-66
2022/05/01 10:54:21;;;;;;;2.90;2.20;;;;;;;21.84;31.24;95911.17;1796060;80;21015;-66
2022/05/01 10:56:51;;;;;;;4.03;2.08;;;;;;;21.61;31.03;95912.50;1795328;80;21489;-66
2022/05/01 10:59:38;;;;;;;3.25;2.00;;;;;;;21.09;30.95;95913.59;1795613;80;21046;-66
2022/05/01 11:02:08;;;;;;;2.00;1.90;;;;;;;20.78;31.75;95915.72;1795747;80;21456;-66
2022/05/01 11:04:41;;;;;;;2.60;1.60;;;;;;;20.48;33.00;95912.82;1794850;80;21488;-66
2022/05/01 11:07:14;;;;;;;3.72;1.90;;;;;;;20.23;31.25;95906.53;1795254;80;21137;-66
2022/05/01 11:09:45;;;;;;;2.08;1.72;;;;;;;20.01;30.57;95903.64;1790424;80;21018;-66
2022/05/01 11:12:14;;;;;;;2.10;1.90;;;;;;;19.87;32.44;95907.00;1787027;80;21006;-66
2022/05/01 11:14:59;;;;;;;2.17;1.98;;;;;;;19.96;31.13;95897.64;1787246;80;20980;-66
2022/05/01 11:17:42;;;;;;;2.85;2.05;;;;;;;20.04;31.34;95893.23;1787157;80;21547;-66
2022/05/01 11:20:23;;;;;;;2.62;1.82;;;;;;;20.47;32.93;95896.36;1787201;80;20995;-66
2022/05/01 11:22:51;;;;;;;2.85;1.92;;;;;;;21.16;34.65;95887.27;1787255;80;21481;-66
2022/05/01 11:25:39;;;;;;;3.02;1.87;;;;;;;21.71;33.49;95894.05;1787120;80;21019;-66
2022/05/01 11:28:07;;;;;;;2.20;1.98;;;;;;;22.15;34.61;95887.86;1787720;80;21007;-66
2022/05/01 11:30:36;;;;;;;2.25;1.62;;;;;;;22.63;32.49;95884.56;1787327;80;21027;-66
2022/05/01 11:33:10;;;;;;;3.52;2.35;;;;;;;22.44;30.96;95882.98;1786977;80;21070;-66
2022/05/01 11:36:00;;;;;;;4.00;2.42;;;;;;;21.94;29.29;95882.81;1787031;80;21484;-66
2022/05/01 11:38:48;;;;;;;2.77;2.20;;;;;;;21.77;30.78;95882.94;1787098;80;21500;-66
2022/05/01 11:41:15;;;;;;;2.55;1.80;;;;;;;22.17;31.11;95876.06;1787606;80;21010;-66
2022/05/01 11:43:41;;;;;;;1.95;1.85;;;;;;;22.93;28.35;95875.52;1787115;80;21493;-66
2022/05/01 11:46:17;;;;;;;1.92;1.72;;;;;;;23.54;28.49;95866.23;1787134;80;20948;-66
2022/05/01 11:48:44;;;;;;;2.17;1.30;;;;;;;24.05;28.37;95866.44;1787057;80;21503;-66
2022/05/01 11:51:12;;;;;;;2.00;1.60;;;;;;;24.43;28.64;95860.73;1779999;80;20951;-66
2022/05/01 11:53:39;;;;;;;2.47;1.70;;;;;;;24.94;26.36;95862.11;1787035;80;20982;-67
2022/05/01 12:04:37;;;;;;;1.90;1.70;;;;;;;24.05;26.45;95855.66;1787135;80;20967;-66
2022/05/01 12:07:12;;;;;;;1.77;1.67;;;;;;;24.43;27.54;95860.73;1786708;80;21082;-67
2022/05/01 12:09:41;;;;;;;7.65;1.98;;;;;;;25.14;27.10;95857.97;1786973;80;21006;-67
2022/05/01 12:12:14;;;;;;;2.12;1.65;;;;;;;25.63;25.29;95846.32;1787081;80;20976;-67
2022/05/01 12:14:42;;;;;;;2.50;2.00;;;;;;;25.28;24.84;95847.57;1786997;80;21437;-67
2022/05/01 12:17:16;;;;;;;2.10;1.90;;;;;;;25.07;23.81;95846.74;1787174;80;20979;-67